sensor_id;sensor_type;location;lat;lon;timestamp;P1;durP1;ratioP1;P2;durP2;ratioP2
81487;SDS011;70897;52.464;13.428;2023-09-18T00:00:25;12.50;;;9.43;;
81487;SDS011;70897;52.464;13.428;2023-09-18T00:03:10;12.55;;;10.25;;
81487;SDS011;70897;52.464;13.428;2023-09-18T00:05:55;13.18;;;9.68;;
81487;SDS011;70897;52.464;13.428;2023-09-18T00:08:40;10.75;;;9.65;;
81487;SDS011;70897;52.464;13.428;2023-09-18T00:11:25;10.25;;;9.10;;
81487;SDS011;70897;52.464;13.428;2023-09-18T00:14:11;10.75;;;9.60;;
81487;SDS011;70897;52.464;13.428;2023-09-18T00:16:56;14.15;;;9.68;;
81487;SDS011;70897;52.464;13.428;2023-09-18T00:19:42;12.35;;;9.63;;
81487;SDS011;70897;52.464;13.428;2023-09-18T00:22:27;10.70;;;9.60;;
81487;SDS011;70897;52.464;13.428;2023-09-18T00:25:12;10.73;;;9.60;;
81487;SDS011;70897;52.464;13.428;2023-09-18T00:27:59;11.90;;;9.32;;
81487;SDS011;70897;52.464;13.428;2023-09-18T00:30:49;10.60;;;9.50;;
81487;SDS011;70897;52.464;13.428;2023-09-18T00:33:34;10.32;;;9.32;;
81487;SDS011;70897;52.464;13.428;2023-09-18T00:36:19;11.38;;;9.25;;
81487;SDS011;70897;52.464;13.428;2023-09-18T00:39:04;10.90;;;9.80;;
81487;SDS011;70897;52.464;13.428;2023-09-18T00:41:49;11.55;;;9.63;;
81487;SDS011;70897;52.464;13.428;2023-09-18T00:44:39;11.75;;;9.43;;
81487;SDS011;70897;52.464;13.428;2023-09-18T00:47:25;10.70;;;9.57;;
81487;SDS011;70897;52.464;13.428;2023-09-18T00:50:11;10.40;;;9.30;;
81487;SDS011;70897;52.464;13.428;2023-09-18T00:52:58;13.02;;;9.40;;
81487;SDS011;70897;52.464;13.428;2023-09-18T00:55:45;12.45;;;9.80;;
81487;SDS011;70897;52.464;13.428;2023-09-18T00:58:30;12.02;;;9.90;;
81487;SDS011;70897;52.464;13.428;2023-09-18T01:01:17;11.40;;;9.68;;
81487;SDS011;70897;52.464;13.428;2023-09-18T01:04:07;10.45;;;9.18;;
81487;SDS011;70897;52.464;13.428;2023-09-18T01:06:52;13.18;;;9.30;;
81487;SDS011;70897;52.464;13.428;2023-09-18T01:09:39;15.95;;;9.85;;
81487;SDS011;70897;52.464;13.428;2023-09-18T01:15:35;10.77;;;9.68;;
81487;SDS011;70897;52.464;13.428;2023-09-18T01:18:26;14.57;;;9.52;;
81487;SDS011;70897;52.464;13.428;2023-09-18T01:21:11;11.52;;;9.07;;
81487;SDS011;70897;52.464;13.428;2023-09-18T01:23:56;11.05;;;9.73;;
81487;SDS011;70897;52.464;13.428;2023-09-18T01:26:41;10.38;;;9.15;;
81487;SDS011;70897;52.464;13.428;2023-09-18T01:29:27;10.30;;;9.30;;
81487;SDS011;70897;52.464;13.428;2023-09-18T01:32:13;10.05;;;8.95;;
81487;SDS011;70897;52.464;13.428;2023-09-18T01:34:59;10.25;;;9.23;;
81487;SDS011;70897;52.464;13.428;2023-09-18T01:37:46;10.88;;;9.35;;
81487;SDS011;70897;52.464;13.428;2023-09-18T01:40:31;10.52;;;8.80;;
81487;SDS011;70897;52.464;13.428;2023-09-18T01:43:17;15.10;;;9.70;;
81487;SDS011;70897;52.464;13.428;2023-09-18T01:46:02;9.82;;;8.77;;
81487;SDS011;70897;52.464;13.428;2023-09-18T01:48:47;10.00;;;9.00;;
81487;SDS011;70897;52.464;13.428;2023-09-18T01:51:32;12.15;;;8.88;;
81487;SDS011;70897;52.464;13.428;2023-09-18T01:54:17;12.93;;;9.07;;
81487;SDS011;70897;52.464;13.428;2023-09-18T01:57:03;11.73;;;9.73;;
81487;SDS011;70897;52.464;13.428;2023-09-18T01:59:49;10.90;;;8.80;;
81487;SDS011;70897;52.464;13.428;2023-09-18T02:02:34;10.85;;;8.70;;
81487;SDS011;70897;52.464;13.428;2023-09-18T02:05:20;11.70;;;9.00;;
81487;SDS011;70897;52.464;13.428;2023-09-18T02:08:06;10.15;;;9.15;;
81487;SDS011;70897;52.464;13.428;2023-09-18T02:10:51;11.25;;;8.82;;
81487;SDS011;70897;52.464;13.428;2023-09-18T02:13:36;10.02;;;9.02;;
81487;SDS011;70897;52.464;13.428;2023-09-18T02:16:21;10.63;;;9.20;;
81487;SDS011;70897;52.464;13.428;2023-09-18T02:19:07;11.55;;;9.25;;
81487;SDS011;70897;52.464;13.428;2023-09-18T02:21:55;10.45;;;8.98;;
81487;SDS011;70897;52.464;13.428;2023-09-18T02:24:42;10.77;;;8.88;;
81487;SDS011;70897;52.464;13.428;2023-09-18T02:27:27;10.10;;;8.80;;
81487;SDS011;70897;52.464;13.428;2023-09-18T02:30:12;11.85;;;8.85;;
81487;SDS011;70897;52.464;13.428;2023-09-18T02:32:57;11.68;;;8.25;;
81487;SDS011;70897;52.464;13.428;2023-09-18T02:35:43;10.02;;;8.80;;
81487;SDS011;70897;52.464;13.428;2023-09-18T02:38:29;10.52;;;8.70;;
81487;SDS011;70897;52.464;13.428;2023-09-18T02:41:16;10.68;;;8.68;;
81487;SDS011;70897;52.464;13.428;2023-09-18T02:44:01;9.65;;;8.05;;
81487;SDS011;70897;52.464;13.428;2023-09-18T02:46:46;10.13;;;8.57;;
81487;SDS011;70897;52.464;13.428;2023-09-18T02:49:32;12.20;;;8.73;;
81487;SDS011;70897;52.464;13.428;2023-09-18T02:52:17;9.25;;;8.30;;
81487;SDS011;70897;52.464;13.428;2023-09-18T02:55:02;9.77;;;8.48;;
81487;SDS011;70897;52.464;13.428;2023-09-18T02:57:47;13.15;;;9.07;;
81487;SDS011;70897;52.464;13.428;2023-09-18T03:00:32;9.95;;;8.70;;
81487;SDS011;70897;52.464;13.428;2023-09-18T03:03:17;10.02;;;8.82;;
81487;SDS011;70897;52.464;13.428;2023-09-18T03:06:03;10.70;;;9.60;;
81487;SDS011;70897;52.464;13.428;2023-09-18T03:08:49;9.52;;;8.50;;
81487;SDS011;70897;52.464;13.428;2023-09-18T03:11:35;10.75;;;9.35;;
81487;SDS011;70897;52.464;13.428;2023-09-18T03:14:20;12.88;;;9.45;;
81487;SDS011;70897;52.464;13.428;2023-09-18T03:17:05;10.45;;;9.13;;
81487;SDS011;70897;52.464;13.428;2023-09-18T03:19:50;10.27;;;8.70;;
81487;SDS011;70897;52.464;13.428;2023-09-18T03:22:35;10.13;;;9.07;;
81487;SDS011;70897;52.464;13.428;2023-09-18T03:25:20;9.52;;;8.52;;
81487;SDS011;70897;52.464;13.428;2023-09-18T03:28:05;10.32;;;8.40;;
81487;SDS011;70897;52.464;13.428;2023-09-18T03:30:51;10.13;;;9.00;;
81487;SDS011;70897;52.464;13.428;2023-09-18T03:33:40;10.98;;;9.13;;
81487;SDS011;70897;52.464;13.428;2023-09-18T03:36:25;10.00;;;8.98;;
81487;SDS011;70897;52.464;13.428;2023-09-18T03:39:10;10.32;;;8.50;;
81487;SDS011;70897;52.464;13.428;2023-09-18T03:41:55;10.10;;;8.65;;
81487;SDS011;70897;52.464;13.428;2023-09-18T03:44:40;11.23;;;8.65;;
81487;SDS011;70897;52.464;13.428;2023-09-18T03:47:25;9.93;;;8.60;;
81487;SDS011;70897;52.464;13.428;2023-09-18T03:50:10;11.23;;;8.57;;
81487;SDS011;70897;52.464;13.428;2023-09-18T03:52:56;9.27;;;8.30;;
81487;SDS011;70897;52.464;13.428;2023-09-18T03:55:42;9.68;;;8.52;;
81487;SDS011;70897;52.464;13.428;2023-09-18T03:58:27;9.57;;;8.57;;
81487;SDS011;70897;52.464;13.428;2023-09-18T04:01:12;13.27;;;9.05;;
81487;SDS011;70897;52.464;13.428;2023-09-18T04:03:57;10.88;;;8.90;;
81487;SDS011;70897;52.464;13.428;2023-09-18T04:06:42;10.25;;;8.32;;
81487;SDS011;70897;52.464;13.428;2023-09-18T04:09:28;10.68;;;8.85;;
81487;SDS011;70897;52.464;13.428;2023-09-18T04:12:13;10.85;;;8.90;;
81487;SDS011;70897;52.464;13.428;2023-09-18T04:14:58;11.48;;;8.82;;
81487;SDS011;70897;52.464;13.428;2023-09-18T04:17:43;10.70;;;9.07;;
81487;SDS011;70897;52.464;13.428;2023-09-18T04:20:29;11.35;;;8.38;;
81487;SDS011;70897;52.464;13.428;2023-09-18T04:23:24;10.85;;;8.68;;
81487;SDS011;70897;52.464;13.428;2023-09-18T04:26:10;10.65;;;9.38;;
81487;SDS011;70897;52.464;13.428;2023-09-18T04:28:57;11.00;;;8.93;;
81487;SDS011;70897;52.464;13.428;2023-09-18T04:31:44;10.32;;;8.77;;
81487;SDS011;70897;52.464;13.428;2023-09-18T04:34:29;10.40;;;8.80;;
81487;SDS011;70897;52.464;13.428;2023-09-18T04:37:14;12.55;;;8.68;;
81487;SDS011;70897;52.464;13.428;2023-09-18T04:39:59;11.38;;;9.48;;
81487;SDS011;70897;52.464;13.428;2023-09-18T04:42:44;14.00;;;9.02;;
81487;SDS011;70897;52.464;13.428;2023-09-18T04:45:30;12.07;;;9.00;;
81487;SDS011;70897;52.464;13.428;2023-09-18T04:48:16;10.45;;;9.00;;
81487;SDS011;70897;52.464;13.428;2023-09-18T04:51:01;13.55;;;8.77;;
81487;SDS011;70897;52.464;13.428;2023-09-18T04:53:48;11.27;;;9.15;;
81487;SDS011;70897;52.464;13.428;2023-09-18T04:56:33;12.65;;;9.23;;
81487;SDS011;70897;52.464;13.428;2023-09-18T04:59:19;11.27;;;9.32;;
81487;SDS011;70897;52.464;13.428;2023-09-18T05:02:03;11.20;;;9.40;;
81487;SDS011;70897;52.464;13.428;2023-09-18T05:04:49;11.10;;;9.00;;
81487;SDS011;70897;52.464;13.428;2023-09-18T05:07:35;12.60;;;8.60;;
81487;SDS011;70897;52.464;13.428;2023-09-18T05:10:21;10.25;;;8.68;;
81487;SDS011;70897;52.464;13.428;2023-09-18T05:13:06;12.40;;;8.73;;
81487;SDS011;70897;52.464;13.428;2023-09-18T05:15:51;11.15;;;8.50;;
81487;SDS011;70897;52.464;13.428;2023-09-18T05:18:36;13.77;;;8.52;;
81487;SDS011;70897;52.464;13.428;2023-09-18T05:21:22;9.43;;;8.50;;
81487;SDS011;70897;52.464;13.428;2023-09-18T05:24:09;11.00;;;8.07;;
81487;SDS011;70897;52.464;13.428;2023-09-18T05:26:54;12.68;;;8.25;;
81487;SDS011;70897;52.464;13.428;2023-09-18T05:29:39;10.48;;;8.60;;
81487;SDS011;70897;52.464;13.428;2023-09-18T05:32:24;9.70;;;8.00;;
81487;SDS011;70897;52.464;13.428;2023-09-18T05:35:09;9.95;;;8.13;;
81487;SDS011;70897;52.464;13.428;2023-09-18T05:37:57;13.30;;;8.57;;
81487;SDS011;70897;52.464;13.428;2023-09-18T05:40:43;11.38;;;7.93;;
81487;SDS011;70897;52.464;13.428;2023-09-18T05:43:29;10.07;;;7.95;;
81487;SDS011;70897;52.464;13.428;2023-09-18T05:46:14;9.73;;;7.78;;
81487;SDS011;70897;52.464;13.428;2023-09-18T05:48:59;10.48;;;7.70;;
81487;SDS011;70897;52.464;13.428;2023-09-18T05:51:45;9.38;;;8.38;;
81487;SDS011;70897;52.464;13.428;2023-09-18T05:54:31;10.93;;;7.10;;
81487;SDS011;70897;52.464;13.428;2023-09-18T05:57:17;9.35;;;6.97;;
81487;SDS011;70897;52.464;13.428;2023-09-18T06:00:03;10.48;;;7.10;;
81487;SDS011;70897;52.464;13.428;2023-09-18T06:02:56;10.52;;;6.30;;
81487;SDS011;70897;52.464;13.428;2023-09-18T06:05:41;9.10;;;7.35;;
81487;SDS011;70897;52.464;13.428;2023-09-18T06:08:26;8.73;;;6.85;;
81487;SDS011;70897;52.464;13.428;2023-09-18T06:11:12;8.15;;;6.70;;
81487;SDS011;70897;52.464;13.428;2023-09-18T06:13:58;8.60;;;6.43;;
81487;SDS011;70897;52.464;13.428;2023-09-18T06:16:43;9.38;;;6.43;;
81487;SDS011;70897;52.464;13.428;2023-09-18T06:19:27;9.35;;;6.63;;
81487;SDS011;70897;52.464;13.428;2023-09-18T06:22:13;8.70;;;6.50;;
81487;SDS011;70897;52.464;13.428;2023-09-18T06:24:58;10.65;;;6.68;;
81487;SDS011;70897;52.464;13.428;2023-09-18T06:27:43;10.15;;;6.32;;
81487;SDS011;70897;52.464;13.428;2023-09-18T06:30:29;10.93;;;6.63;;
81487;SDS011;70897;52.464;13.428;2023-09-18T06:33:17;11.07;;;6.60;;
81487;SDS011;70897;52.464;13.428;2023-09-18T06:36:02;8.27;;;5.90;;
81487;SDS011;70897;52.464;13.428;2023-09-18T06:38:48;8.25;;;5.85;;
81487;SDS011;70897;52.464;13.428;2023-09-18T06:41:33;7.22;;;5.68;;
81487;SDS011;70897;52.464;13.428;2023-09-18T06:44:18;6.25;;;4.80;;
81487;SDS011;70897;52.464;13.428;2023-09-18T06:47:03;6.57;;;5.43;;
81487;SDS011;70897;52.464;13.428;2023-09-18T06:49:48;6.72;;;4.97;;
81487;SDS011;70897;52.464;13.428;2023-09-18T06:52:33;6.50;;;5.25;;
81487;SDS011;70897;52.464;13.428;2023-09-18T06:55:18;5.47;;;4.93;;
81487;SDS011;70897;52.464;13.428;2023-09-18T06:58:03;5.45;;;4.85;;
81487;SDS011;70897;52.464;13.428;2023-09-18T07:00:48;4.80;;;4.40;;
81487;SDS011;70897;52.464;13.428;2023-09-18T07:03:35;6.50;;;4.82;;
81487;SDS011;70897;52.464;13.428;2023-09-18T07:06:20;8.00;;;4.40;;
81487;SDS011;70897;52.464;13.428;2023-09-18T07:09:06;9.13;;;4.63;;
81487;SDS011;70897;52.464;13.428;2023-09-18T07:11:51;6.78;;;4.50;;
81487;SDS011;70897;52.464;13.428;2023-09-18T07:14:36;8.27;;;4.55;;
81487;SDS011;70897;52.464;13.428;2023-09-18T07:17:22;5.20;;;4.70;;
81487;SDS011;70897;52.464;13.428;2023-09-18T07:20:07;7.25;;;4.30;;
81487;SDS011;70897;52.464;13.428;2023-09-18T07:22:58;7.93;;;4.53;;
81487;SDS011;70897;52.464;13.428;2023-09-18T07:25:43;6.18;;;4.57;;
81487;SDS011;70897;52.464;13.428;2023-09-18T07:28:28;6.65;;;4.35;;
81487;SDS011;70897;52.464;13.428;2023-09-18T07:31:13;9.25;;;4.60;;
81487;SDS011;70897;52.464;13.428;2023-09-18T07:33:58;8.65;;;4.28;;
81487;SDS011;70897;52.464;13.428;2023-09-18T07:36:43;5.13;;;3.83;;
81487;SDS011;70897;52.464;13.428;2023-09-18T07:39:29;5.43;;;4.28;;
81487;SDS011;70897;52.464;13.428;2023-09-18T07:42:14;7.20;;;4.15;;
81487;SDS011;70897;52.464;13.428;2023-09-18T07:44:59;6.30;;;4.30;;
81487;SDS011;70897;52.464;13.428;2023-09-18T07:47:44;7.25;;;4.32;;
81487;SDS011;70897;52.464;13.428;2023-09-18T07:50:29;5.40;;;3.95;;
81487;SDS011;70897;52.464;13.428;2023-09-18T07:53:16;5.35;;;3.72;;
81487;SDS011;70897;52.464;13.428;2023-09-18T07:56:01;5.72;;;4.15;;
81487;SDS011;70897;52.464;13.428;2023-09-18T07:58:48;5.60;;;4.55;;
81487;SDS011;70897;52.464;13.428;2023-09-18T08:01:33;5.35;;;4.07;;
81487;SDS011;70897;52.464;13.428;2023-09-18T08:04:19;4.75;;;4.03;;
81487;SDS011;70897;52.464;13.428;2023-09-18T08:07:04;7.28;;;3.92;;
81487;SDS011;70897;52.464;13.428;2023-09-18T08:09:51;4.45;;;4.05;;
81487;SDS011;70897;52.464;13.428;2023-09-18T08:12:36;5.05;;;4.05;;
81487;SDS011;70897;52.464;13.428;2023-09-18T08:15:21;5.05;;;4.25;;
81487;SDS011;70897;52.464;13.428;2023-09-18T08:18:07;5.60;;;4.05;;
81487;SDS011;70897;52.464;13.428;2023-09-18T08:20:52;6.13;;;4.35;;
81487;SDS011;70897;52.464;13.428;2023-09-18T08:23:38;6.95;;;4.00;;
81487;SDS011;70897;52.464;13.428;2023-09-18T08:26:24;7.25;;;4.40;;
81487;SDS011;70897;52.464;13.428;2023-09-18T08:29:09;6.18;;;4.15;;
81487;SDS011;70897;52.464;13.428;2023-09-18T08:31:54;8.65;;;4.32;;
81487;SDS011;70897;52.464;13.428;2023-09-18T08:34:39;7.47;;;4.40;;
81487;SDS011;70897;52.464;13.428;2023-09-18T08:37:24;5.40;;;3.85;;
81487;SDS011;70897;52.464;13.428;2023-09-18T08:40:10;4.47;;;3.70;;
81487;SDS011;70897;52.464;13.428;2023-09-18T08:42:57;7.00;;;3.65;;
81487;SDS011;70897;52.464;13.428;2023-09-18T08:45:52;5.43;;;4.25;;
81487;SDS011;70897;52.464;13.428;2023-09-18T08:48:38;8.05;;;5.50;;
81487;SDS011;70897;52.464;13.428;2023-09-18T08:51:24;6.80;;;3.78;;
81487;SDS011;70897;52.464;13.428;2023-09-18T08:54:10;4.30;;;3.90;;
81487;SDS011;70897;52.464;13.428;2023-09-18T08:56:55;4.45;;;3.67;;
81487;SDS011;70897;52.464;13.428;2023-09-18T08:59:40;5.03;;;3.60;;
81487;SDS011;70897;52.464;13.428;2023-09-18T09:02:26;5.40;;;4.13;;
81487;SDS011;70897;52.464;13.428;2023-09-18T09:05:11;6.25;;;3.50;;
81487;SDS011;70897;52.464;13.428;2023-09-18T09:07:56;9.23;;;3.90;;
81487;SDS011;70897;52.464;13.428;2023-09-18T09:10:41;6.15;;;3.80;;
81487;SDS011;70897;52.464;13.428;2023-09-18T09:13:26;4.90;;;3.67;;
81487;SDS011;70897;52.464;13.428;2023-09-18T09:16:12;5.55;;;3.53;;
81487;SDS011;70897;52.464;13.428;2023-09-18T09:18:58;5.38;;;3.63;;
81487;SDS011;70897;52.464;13.428;2023-09-18T09:21:43;4.10;;;3.40;;
81487;SDS011;70897;52.464;13.428;2023-09-18T09:24:36;4.00;;;3.60;;
81487;SDS011;70897;52.464;13.428;2023-09-18T09:27:21;4.88;;;3.67;;
81487;SDS011;70897;52.464;13.428;2023-09-18T09:30:06;4.35;;;3.75;;
81487;SDS011;70897;52.464;13.428;2023-09-18T09:32:52;5.45;;;3.65;;
81487;SDS011;70897;52.464;13.428;2023-09-18T09:35:39;4.18;;;3.75;;
81487;SDS011;70897;52.464;13.428;2023-09-18T09:38:28;4.38;;;3.88;;
81487;SDS011;70897;52.464;13.428;2023-09-18T09:41:18;3.75;;;3.45;;
81487;SDS011;70897;52.464;13.428;2023-09-18T09:44:04;5.30;;;3.80;;
81487;SDS011;70897;52.464;13.428;2023-09-18T09:46:50;5.00;;;3.53;;
81487;SDS011;70897;52.464;13.428;2023-09-18T09:49:45;6.13;;;3.60;;
81487;SDS011;70897;52.464;13.428;2023-09-18T09:52:32;6.22;;;3.70;;
81487;SDS011;70897;52.464;13.428;2023-09-18T09:55:25;7.05;;;3.70;;
81487;SDS011;70897;52.464;13.428;2023-09-18T09:58:12;4.85;;;3.95;;
81487;SDS011;70897;52.464;13.428;2023-09-18T10:00:58;4.05;;;3.50;;
81487;SDS011;70897;52.464;13.428;2023-09-18T10:03:50;7.38;;;3.78;;
81487;SDS011;70897;52.464;13.428;2023-09-18T10:06:35;5.35;;;4.18;;
81487;SDS011;70897;52.464;13.428;2023-09-18T10:09:21;5.93;;;3.72;;
81487;SDS011;70897;52.464;13.428;2023-09-18T10:12:11;5.53;;;3.65;;
81487;SDS011;70897;52.464;13.428;2023-09-18T10:14:58;6.07;;;3.80;;
81487;SDS011;70897;52.464;13.428;2023-09-18T10:17:43;4.20;;;3.80;;
81487;SDS011;70897;52.464;13.428;2023-09-18T10:20:35;5.43;;;3.72;;
81487;SDS011;70897;52.464;13.428;2023-09-18T10:26:20;7.93;;;4.43;;
81487;SDS011;70897;52.464;13.428;2023-09-18T10:29:09;5.43;;;3.97;;
81487;SDS011;70897;52.464;13.428;2023-09-18T10:31:57;4.97;;;3.70;;
81487;SDS011;70897;52.464;13.428;2023-09-18T10:34:43;8.25;;;4.05;;
81487;SDS011;70897;52.464;13.428;2023-09-18T10:37:28;3.92;;;3.30;;
81487;SDS011;70897;52.464;13.428;2023-09-18T10:40:16;4.10;;;3.70;;
81487;SDS011;70897;52.464;13.428;2023-09-18T10:43:02;6.50;;;3.70;;
81487;SDS011;70897;52.464;13.428;2023-09-18T10:45:48;6.75;;;4.00;;
81487;SDS011;70897;52.464;13.428;2023-09-18T10:48:35;7.38;;;3.83;;
81487;SDS011;70897;52.464;13.428;2023-09-18T10:51:21;7.63;;;3.83;;
81487;SDS011;70897;52.464;13.428;2023-09-18T10:54:11;6.35;;;3.60;;
81487;SDS011;70897;52.464;13.428;2023-09-18T10:56:59;6.53;;;4.03;;
81487;SDS011;70897;52.464;13.428;2023-09-18T10:59:46;4.78;;;3.50;;
81487;SDS011;70897;52.464;13.428;2023-09-18T11:02:32;7.00;;;3.88;;
81487;SDS011;70897;52.464;13.428;2023-09-18T11:05:29;6.60;;;4.10;;
81487;SDS011;70897;52.464;13.428;2023-09-18T11:08:26;7.53;;;4.18;;
81487;SDS011;70897;52.464;13.428;2023-09-18T11:11:19;6.93;;;3.87;;
81487;SDS011;70897;52.464;13.428;2023-09-18T11:14:05;5.43;;;4.05;;
81487;SDS011;70897;52.464;13.428;2023-09-18T11:16:55;7.47;;;4.45;;
81487;SDS011;70897;52.464;13.428;2023-09-18T11:19:40;8.77;;;4.30;;
81487;SDS011;70897;52.464;13.428;2023-09-18T11:22:27;12.63;;;4.57;;
81487;SDS011;70897;52.464;13.428;2023-09-18T11:28:26;9.95;;;4.63;;
81487;SDS011;70897;52.464;13.428;2023-09-18T11:31:14;8.40;;;4.70;;
81487;SDS011;70897;52.464;13.428;2023-09-18T11:34:00;7.80;;;4.20;;
81487;SDS011;70897;52.464;13.428;2023-09-18T11:36:55;7.43;;;4.45;;
81487;SDS011;70897;52.464;13.428;2023-09-18T11:39:41;6.03;;;4.30;;
81487;SDS011;70897;52.464;13.428;2023-09-18T11:42:28;6.57;;;4.72;;
81487;SDS011;70897;52.464;13.428;2023-09-18T11:45:16;4.88;;;4.22;;
81487;SDS011;70897;52.464;13.428;2023-09-18T11:48:01;9.02;;;4.65;;
81487;SDS011;70897;52.464;13.428;2023-09-18T11:50:48;6.80;;;4.60;;
81487;SDS011;70897;52.464;13.428;2023-09-18T11:53:35;14.18;;;7.68;;
81487;SDS011;70897;52.464;13.428;2023-09-18T11:56:24;10.48;;;4.55;;
81487;SDS011;70897;52.464;13.428;2023-09-18T11:59:09;6.95;;;4.28;;
81487;SDS011;70897;52.464;13.428;2023-09-18T12:01:55;12.68;;;4.80;;
81487;SDS011;70897;52.464;13.428;2023-09-18T12:04:50;8.68;;;4.50;;
81487;SDS011;70897;52.464;13.428;2023-09-18T12:07:35;6.40;;;4.40;;
81487;SDS011;70897;52.464;13.428;2023-09-18T12:10:20;6.78;;;4.32;;
81487;SDS011;70897;52.464;13.428;2023-09-18T12:13:05;7.47;;;4.22;;
81487;SDS011;70897;52.464;13.428;2023-09-18T12:16:03;6.93;;;4.40;;
81487;SDS011;70897;52.464;13.428;2023-09-18T12:18:50;5.93;;;4.38;;
81487;SDS011;70897;52.464;13.428;2023-09-18T12:21:42;7.70;;;3.95;;
81487;SDS011;70897;52.464;13.428;2023-09-18T12:24:29;4.85;;;3.90;;
81487;SDS011;70897;52.464;13.428;2023-09-18T12:27:14;8.85;;;3.90;;
81487;SDS011;70897;52.464;13.428;2023-09-18T12:29:59;5.50;;;3.80;;
81487;SDS011;70897;52.464;13.428;2023-09-18T12:32:44;7.18;;;4.10;;
81487;SDS011;70897;52.464;13.428;2023-09-18T12:35:29;6.55;;;4.20;;
81487;SDS011;70897;52.464;13.428;2023-09-18T12:38:16;5.90;;;4.13;;
81487;SDS011;70897;52.464;13.428;2023-09-18T12:41:04;7.30;;;4.00;;
81487;SDS011;70897;52.464;13.428;2023-09-18T12:43:52;5.63;;;4.03;;
81487;SDS011;70897;52.464;13.428;2023-09-18T12:46:38;9.90;;;3.92;;
81487;SDS011;70897;52.464;13.428;2023-09-18T12:49:25;7.90;;;4.10;;
81487;SDS011;70897;52.464;13.428;2023-09-18T12:52:21;6.47;;;4.03;;
81487;SDS011;70897;52.464;13.428;2023-09-18T12:55:06;6.18;;;4.00;;
81487;SDS011;70897;52.464;13.428;2023-09-18T12:57:52;8.82;;;3.70;;
81487;SDS011;70897;52.464;13.428;2023-09-18T13:00:43;9.63;;;4.20;;
81487;SDS011;70897;52.464;13.428;2023-09-18T13:03:34;7.40;;;3.92;;
81487;SDS011;70897;52.464;13.428;2023-09-18T13:06:20;8.05;;;4.30;;
81487;SDS011;70897;52.464;13.428;2023-09-18T13:09:15;9.05;;;4.18;;
81487;SDS011;70897;52.464;13.428;2023-09-18T13:12:07;7.07;;;4.10;;
81487;SDS011;70897;52.464;13.428;2023-09-18T13:14:59;9.48;;;4.53;;
81487;SDS011;70897;52.464;13.428;2023-09-18T13:17:57;9.10;;;4.20;;
81487;SDS011;70897;52.464;13.428;2023-09-18T13:20:44;7.80;;;4.20;;
81487;SDS011;70897;52.464;13.428;2023-09-18T13:23:32;8.30;;;4.18;;
81487;SDS011;70897;52.464;13.428;2023-09-18T13:26:18;13.13;;;4.47;;
81487;SDS011;70897;52.464;13.428;2023-09-18T13:29:03;8.65;;;4.25;;
81487;SDS011;70897;52.464;13.428;2023-09-18T13:31:49;13.25;;;6.25;;
81487;SDS011;70897;52.464;13.428;2023-09-18T13:34:38;12.00;;;4.68;;
81487;SDS011;70897;52.464;13.428;2023-09-18T13:37:23;12.35;;;4.68;;
81487;SDS011;70897;52.464;13.428;2023-09-18T13:40:09;9.10;;;4.63;;
81487;SDS011;70897;52.464;13.428;2023-09-18T13:42:54;9.43;;;4.55;;
81487;SDS011;70897;52.464;13.428;2023-09-18T13:45:40;8.50;;;5.10;;
81487;SDS011;70897;52.464;13.428;2023-09-18T13:48:25;7.43;;;5.28;;
81487;SDS011;70897;52.464;13.428;2023-09-18T13:51:11;13.45;;;5.40;;
81487;SDS011;70897;52.464;13.428;2023-09-18T13:53:56;11.13;;;5.70;;
81487;SDS011;70897;52.464;13.428;2023-09-18T13:56:41;12.13;;;6.32;;
81487;SDS011;70897;52.464;13.428;2023-09-18T13:59:27;14.95;;;5.13;;
81487;SDS011;70897;52.464;13.428;2023-09-18T14:02:12;10.70;;;4.95;;
81487;SDS011;70897;52.464;13.428;2023-09-18T14:04:57;11.85;;;4.88;;
81487;SDS011;70897;52.464;13.428;2023-09-18T14:07:42;9.68;;;4.43;;
81487;SDS011;70897;52.464;13.428;2023-09-18T14:10:27;9.63;;;4.80;;
81487;SDS011;70897;52.464;13.428;2023-09-18T14:13:12;9.80;;;5.05;;
81487;SDS011;70897;52.464;13.428;2023-09-18T14:15:57;9.63;;;4.80;;
81487;SDS011;70897;52.464;13.428;2023-09-18T14:18:43;13.32;;;4.88;;
81487;SDS011;70897;52.464;13.428;2023-09-18T14:21:28;10.55;;;4.78;;
81487;SDS011;70897;52.464;13.428;2023-09-18T14:24:13;8.57;;;4.53;;
81487;SDS011;70897;52.464;13.428;2023-09-18T14:26:58;7.63;;;3.95;;
81487;SDS011;70897;52.464;13.428;2023-09-18T14:29:44;11.13;;;4.28;;
81487;SDS011;70897;52.464;13.428;2023-09-18T14:32:29;10.13;;;3.80;;
81487;SDS011;70897;52.464;13.428;2023-09-18T14:35:14;9.65;;;3.95;;
81487;SDS011;70897;52.464;13.428;2023-09-18T14:37:59;7.85;;;3.80;;
81487;SDS011;70897;52.464;13.428;2023-09-18T14:40:44;6.85;;;3.38;;
81487;SDS011;70897;52.464;13.428;2023-09-18T14:43:29;8.68;;;3.33;;
81487;SDS011;70897;52.464;13.428;2023-09-18T14:46:14;6.93;;;3.38;;
81487;SDS011;70897;52.464;13.428;2023-09-18T14:48:59;7.47;;;3.42;;
81487;SDS011;70897;52.464;13.428;2023-09-18T14:51:45;10.80;;;3.13;;
81487;SDS011;70897;52.464;13.428;2023-09-18T14:54:31;9.77;;;3.28;;
81487;SDS011;70897;52.464;13.428;2023-09-18T14:57:16;9.95;;;3.35;;
81487;SDS011;70897;52.464;13.428;2023-09-18T15:00:01;12.73;;;3.05;;
81487;SDS011;70897;52.464;13.428;2023-09-18T15:02:50;7.97;;;2.78;;
81487;SDS011;70897;52.464;13.428;2023-09-18T15:05:35;10.75;;;3.00;;
81487;SDS011;70897;52.464;13.428;2023-09-18T15:08:20;10.05;;;2.97;;
81487;SDS011;70897;52.464;13.428;2023-09-18T15:11:05;10.13;;;2.85;;
81487;SDS011;70897;52.464;13.428;2023-09-18T15:13:50;11.00;;;5.18;;
81487;SDS011;70897;52.464;13.428;2023-09-18T15:16:35;5.50;;;2.70;;
81487;SDS011;70897;52.464;13.428;2023-09-18T15:19:20;5.38;;;2.30;;
81487;SDS011;70897;52.464;13.428;2023-09-18T15:22:06;9.73;;;2.88;;
81487;SDS011;70897;52.464;13.428;2023-09-18T15:24:51;10.35;;;2.95;;
81487;SDS011;70897;52.464;13.428;2023-09-18T15:27:36;5.82;;;2.42;;
81487;SDS011;70897;52.464;13.428;2023-09-18T15:30:22;10.65;;;2.63;;
81487;SDS011;70897;52.464;13.428;2023-09-18T15:33:09;6.50;;;2.67;;
81487;SDS011;70897;52.464;13.428;2023-09-18T15:35:55;4.88;;;2.22;;
81487;SDS011;70897;52.464;13.428;2023-09-18T15:38:40;5.80;;;2.35;;
81487;SDS011;70897;52.464;13.428;2023-09-18T15:41:25;10.95;;;3.00;;
81487;SDS011;70897;52.464;13.428;2023-09-18T15:44:12;14.30;;;3.03;;
81487;SDS011;70897;52.464;13.428;2023-09-18T15:46:58;7.60;;;3.05;;
81487;SDS011;70897;52.464;13.428;2023-09-18T15:49:43;8.85;;;2.78;;
81487;SDS011;70897;52.464;13.428;2023-09-18T15:52:28;10.07;;;2.80;;
81487;SDS011;70897;52.464;13.428;2023-09-18T15:55:13;8.90;;;3.05;;
81487;SDS011;70897;52.464;13.428;2023-09-18T15:57:58;7.78;;;2.70;;
81487;SDS011;70897;52.464;13.428;2023-09-18T16:00:43;8.00;;;2.50;;
81487;SDS011;70897;52.464;13.428;2023-09-18T16:03:28;8.68;;;3.60;;
81487;SDS011;70897;52.464;13.428;2023-09-18T16:06:32;7.57;;;2.60;;
81487;SDS011;70897;52.464;13.428;2023-09-18T16:09:18;9.68;;;3.28;;
81487;SDS011;70897;52.464;13.428;2023-09-18T16:12:04;13.13;;;5.75;;
81487;SDS011;70897;52.464;13.428;2023-09-18T16:14:51;8.00;;;3.08;;
81487;SDS011;70897;52.464;13.428;2023-09-18T16:17:36;11.57;;;3.50;;
81487;SDS011;70897;52.464;13.428;2023-09-18T16:20:21;9.35;;;3.50;;
81487;SDS011;70897;52.464;13.428;2023-09-18T16:23:06;10.77;;;3.35;;
81487;SDS011;70897;52.464;13.428;2023-09-18T16:25:51;10.32;;;3.78;;
81487;SDS011;70897;52.464;13.428;2023-09-18T16:28:36;10.40;;;4.00;;